sensor_id;sensor_type;location;lat;lon;timestamp;P1;durP1;ratioP1;P2;durP2;ratioP2
68168;SDS011;54981;50.206;15.978;2022-12-07T00:01:15;24.40;;;22.13;;
68168;SDS011;54981;50.206;15.978;2022-12-07T00:03:48;22.20;;;20.30;;
68168;SDS011;54981;50.206;15.978;2022-12-07T00:06:15;28.80;;;26.30;;
68168;SDS011;54981;50.206;15.978;2022-12-07T00:08:41;20.98;;;19.17;;
68168;SDS011;54981;50.206;15.978;2022-12-07T00:11:11;20.85;;;19.02;;
68168;SDS011;54981;50.206;15.978;2022-12-07T00:13:42;20.45;;;18.70;;
68168;SDS011;54981;50.206;15.978;2022-12-07T00:16:09;21.00;;;19.30;;
68168;SDS011;54981;50.206;15.978;2022-12-07T00:18:37;22.80;;;20.90;;
68168;SDS011;54981;50.206;15.978;2022-12-07T00:21:10;21.80;;;19.83;;
68168;SDS011;54981;50.206;15.978;2022-12-07T00:23:40;22.08;;;20.17;;
68168;SDS011;54981;50.206;15.978;2022-12-07T00:26:08;21.90;;;20.08;;
68168;SDS011;54981;50.206;15.978;2022-12-07T00:28:35;20.65;;;18.85;;
68168;SDS011;54981;50.206;15.978;2022-12-07T00:31:05;23.70;;;21.65;;
68168;SDS011;54981;50.206;15.978;2022-12-07T00:36:00;22.25;;;20.35;;
68168;SDS011;54981;50.206;15.978;2022-12-07T00:38:28;22.42;;;20.63;;
68168;SDS011;54981;50.206;15.978;2022-12-07T00:40:59;20.10;;;18.27;;
68168;SDS011;54981;50.206;15.978;2022-12-07T00:43:26;21.50;;;19.70;;
68168;SDS011;54981;50.206;15.978;2022-12-07T00:45:52;21.58;;;19.90;;
68168;SDS011;54981;50.206;15.978;2022-12-07T00:48:19;20.48;;;18.88;;
68168;SDS011;54981;50.206;15.978;2022-12-07T00:50:44;20.33;;;18.65;;
68168;SDS011;54981;50.206;15.978;2022-12-07T00:53:10;20.48;;;18.83;;
68168;SDS011;54981;50.206;15.978;2022-12-07T00:55:35;20.95;;;19.27;;
68168;SDS011;54981;50.206;15.978;2022-12-07T00:58:01;20.73;;;19.13;;
68168;SDS011;54981;50.206;15.978;2022-12-07T01:00:27;20.05;;;18.55;;
68168;SDS011;54981;50.206;15.978;2022-12-07T01:02:52;20.05;;;18.20;;
68168;SDS011;54981;50.206;15.978;2022-12-07T01:05:18;19.30;;;17.77;;
68168;SDS011;54981;50.206;15.978;2022-12-07T01:07:43;19.92;;;18.27;;
68168;SDS011;54981;50.206;15.978;2022-12-07T01:10:09;19.27;;;17.77;;
68168;SDS011;54981;50.206;15.978;2022-12-07T01:12:35;19.52;;;18.00;;
68168;SDS011;54981;50.206;15.978;2022-12-07T01:15:00;18.58;;;17.17;;
68168;SDS011;54981;50.206;15.978;2022-12-07T01:17:25;18.30;;;16.92;;
68168;SDS011;54981;50.206;15.978;2022-12-07T01:19:51;17.83;;;16.42;;
68168;SDS011;54981;50.206;15.978;2022-12-07T01:22:16;16.73;;;15.38;;
68168;SDS011;54981;50.206;15.978;2022-12-07T01:24:41;18.38;;;16.63;;
68168;SDS011;54981;50.206;15.978;2022-12-07T01:27:07;16.33;;;15.05;;
68168;SDS011;54981;50.206;15.978;2022-12-07T01:29:32;15.38;;;14.27;;
68168;SDS011;54981;50.206;15.978;2022-12-07T01:31:57;17.85;;;16.23;;
68168;SDS011;54981;50.206;15.978;2022-12-07T01:34:23;16.05;;;14.75;;
68168;SDS011;54981;50.206;15.978;2022-12-07T01:36:48;17.70;;;16.30;;
68168;SDS011;54981;50.206;15.978;2022-12-07T01:39:14;16.55;;;15.35;;
68168;SDS011;54981;50.206;15.978;2022-12-07T01:41:40;15.68;;;14.48;;
68168;SDS011;54981;50.206;15.978;2022-12-07T01:46:39;17.10;;;15.80;;
68168;SDS011;54981;50.206;15.978;2022-12-07T01:49:08;17.50;;;16.20;;
68168;SDS011;54981;50.206;15.978;2022-12-07T01:51:37;15.25;;;14.15;;
68168;SDS011;54981;50.206;15.978;2022-12-07T01:54:06;14.85;;;13.70;;
68168;SDS011;54981;50.206;15.978;2022-12-07T01:56:32;15.75;;;14.60;;
68168;SDS011;54981;50.206;15.978;2022-12-07T01:58:58;14.10;;;13.00;;
68168;SDS011;54981;50.206;15.978;2022-12-07T02:01:25;14.20;;;13.10;;
68168;SDS011;54981;50.206;15.978;2022-12-07T02:03:50;15.40;;;14.40;;
68168;SDS011;54981;50.206;15.978;2022-12-07T02:06:17;13.63;;;12.63;;
68168;SDS011;54981;50.206;15.978;2022-12-07T02:08:46;14.85;;;13.77;;
68168;SDS011;54981;50.206;15.978;2022-12-07T02:11:12;12.68;;;11.73;;
68168;SDS011;54981;50.206;15.978;2022-12-07T02:13:38;13.57;;;12.68;;
68168;SDS011;54981;50.206;15.978;2022-12-07T02:19:03;12.32;;;11.43;;
68168;SDS011;54981;50.206;15.978;2022-12-07T02:25:05;14.18;;;13.18;;
68168;SDS011;54981;50.206;15.978;2022-12-07T02:27:47;12.77;;;11.93;;
68168;SDS011;54981;50.206;15.978;2022-12-07T02:30:21;13.05;;;12.15;;
68168;SDS011;54981;50.206;15.978;2022-12-07T02:33:08;13.43;;;12.63;;
68168;SDS011;54981;50.206;15.978;2022-12-07T02:38:13;13.63;;;12.68;;
68168;SDS011;54981;50.206;15.978;2022-12-07T02:40:47;13.13;;;12.15;;
68168;SDS011;54981;50.206;15.978;2022-12-07T02:43:28;12.82;;;12.02;;
68168;SDS011;54981;50.206;15.978;2022-12-07T02:45:57;13.55;;;12.48;;
68168;SDS011;54981;50.206;15.978;2022-12-07T02:48:28;13.95;;;12.95;;
68168;SDS011;54981;50.206;15.978;2022-12-07T02:50:54;12.25;;;11.50;;
68168;SDS011;54981;50.206;15.978;2022-12-07T02:55:54;13.88;;;12.82;;
68168;SDS011;54981;50.206;15.978;2022-12-07T02:58:28;13.25;;;12.25;;
68168;SDS011;54981;50.206;15.978;2022-12-07T03:01:04;12.90;;;12.10;;
68168;SDS011;54981;50.206;15.978;2022-12-07T03:03:40;13.18;;;12.27;;
68168;SDS011;54981;50.206;15.978;2022-12-07T03:06:34;12.48;;;11.68;;
68168;SDS011;54981;50.206;15.978;2022-12-07T03:11:56;13.75;;;12.82;;
68168;SDS011;54981;50.206;15.978;2022-12-07T03:14:31;14.18;;;13.20;;
68168;SDS011;54981;50.206;15.978;2022-12-07T03:19:41;12.23;;;11.43;;
68168;SDS011;54981;50.206;15.978;2022-12-07T03:22:11;14.48;;;13.57;;
68168;SDS011;54981;50.206;15.978;2022-12-07T03:24:42;13.20;;;12.40;;
68168;SDS011;54981;50.206;15.978;2022-12-07T03:27:13;13.93;;;13.02;;
68168;SDS011;54981;50.206;15.978;2022-12-07T03:29:47;14.68;;;13.68;;
68168;SDS011;54981;50.206;15.978;2022-12-07T03:34:58;12.63;;;11.73;;
68168;SDS011;54981;50.206;15.978;2022-12-07T03:37:44;13.70;;;12.80;;
68168;SDS011;54981;50.206;15.978;2022-12-07T03:43:04;11.63;;;10.88;;
68168;SDS011;54981;50.206;15.978;2022-12-07T03:48:47;12.88;;;11.95;;
68168;SDS011;54981;50.206;15.978;2022-12-07T03:51:24;12.65;;;11.80;;
68168;SDS011;54981;50.206;15.978;2022-12-07T03:53:59;13.20;;;12.32;;
68168;SDS011;54981;50.206;15.978;2022-12-07T03:56:32;12.57;;;11.63;;
68168;SDS011;54981;50.206;15.978;2022-12-07T03:59:00;13.05;;;12.05;;
68168;SDS011;54981;50.206;15.978;2022-12-07T04:01:25;13.25;;;12.32;;
68168;SDS011;54981;50.206;15.978;2022-12-07T04:03:50;12.88;;;11.88;;
68168;SDS011;54981;50.206;15.978;2022-12-07T04:06:16;13.43;;;12.00;;
68168;SDS011;54981;50.206;15.978;2022-12-07T04:08:42;12.73;;;11.82;;
68168;SDS011;54981;50.206;15.978;2022-12-07T04:11:07;12.95;;;12.05;;
68168;SDS011;54981;50.206;15.978;2022-12-07T04:13:32;12.13;;;11.23;;
68168;SDS011;54981;50.206;15.978;2022-12-07T04:16:18;12.52;;;11.57;;
68168;SDS011;54981;50.206;15.978;2022-12-07T04:18:43;14.77;;;13.70;;
68168;SDS011;54981;50.206;15.978;2022-12-07T04:21:08;15.68;;;14.30;;
68168;SDS011;54981;50.206;15.978;2022-12-07T04:23:34;14.75;;;13.38;;
68168;SDS011;54981;50.206;15.978;2022-12-07T04:25:59;12.98;;;12.07;;
68168;SDS011;54981;50.206;15.978;2022-12-07T04:28:24;14.98;;;13.65;;
68168;SDS011;54981;50.206;15.978;2022-12-07T04:30:50;14.43;;;13.32;;
68168;SDS011;54981;50.206;15.978;2022-12-07T04:33:15;14.27;;;13.18;;
68168;SDS011;54981;50.206;15.978;2022-12-07T04:35:42;13.25;;;12.13;;
68168;SDS011;54981;50.206;15.978;2022-12-07T04:38:07;15.13;;;13.82;;
68168;SDS011;54981;50.206;15.978;2022-12-07T04:40:33;15.43;;;14.10;;
68168;SDS011;54981;50.206;15.978;2022-12-07T04:42:59;14.45;;;13.35;;
68168;SDS011;54981;50.206;15.978;2022-12-07T04:45:24;14.32;;;12.95;;
68168;SDS011;54981;50.206;15.978;2022-12-07T04:47:49;14.85;;;13.75;;
68168;SDS011;54981;50.206;15.978;2022-12-07T04:50:15;13.60;;;12.55;;
68168;SDS011;54981;50.206;15.978;2022-12-07T04:52:40;13.48;;;12.48;;
68168;SDS011;54981;50.206;15.978;2022-12-07T04:55:06;14.27;;;13.18;;
68168;SDS011;54981;50.206;15.978;2022-12-07T04:57:31;14.43;;;13.32;;
68168;SDS011;54981;50.206;15.978;2022-12-07T04:59:57;15.35;;;14.05;;
68168;SDS011;54981;50.206;15.978;2022-12-07T05:02:22;14.25;;;13.25;;
68168;SDS011;54981;50.206;15.978;2022-12-07T05:04:48;13.40;;;12.30;;
68168;SDS011;54981;50.206;15.978;2022-12-07T05:07:13;14.50;;;13.18;;
68168;SDS011;54981;50.206;15.978;2022-12-07T05:09:39;16.45;;;15.15;;
68168;SDS011;54981;50.206;15.978;2022-12-07T05:12:04;15.40;;;14.20;;
68168;SDS011;54981;50.206;15.978;2022-12-07T05:14:30;14.15;;;13.07;;
68168;SDS011;54981;50.206;15.978;2022-12-07T05:16:55;15.43;;;14.23;;
68168;SDS011;54981;50.206;15.978;2022-12-07T05:19:20;15.13;;;13.93;;
68168;SDS011;54981;50.206;15.978;2022-12-07T05:21:46;16.77;;;15.48;;
68168;SDS011;54981;50.206;15.978;2022-12-07T05:24:12;15.88;;;14.27;;
68168;SDS011;54981;50.206;15.978;2022-12-07T05:26:39;17.05;;;15.75;;
68168;SDS011;54981;50.206;15.978;2022-12-07T05:29:05;15.60;;;14.35;;
68168;SDS011;54981;50.206;15.978;2022-12-07T05:31:30;15.43;;;14.32;;
68168;SDS011;54981;50.206;15.978;2022-12-07T05:33:56;16.42;;;15.15;;
68168;SDS011;54981;50.206;15.978;2022-12-07T05:36:21;16.75;;;15.43;;
68168;SDS011;54981;50.206;15.978;2022-12-07T05:38:47;15.70;;;14.18;;
68168;SDS011;54981;50.206;15.978;2022-12-07T05:41:13;16.95;;;15.52;;
68168;SDS011;54981;50.206;15.978;2022-12-07T05:43:59;17.02;;;15.73;;
68168;SDS011;54981;50.206;15.978;2022-12-07T05:46:25;17.42;;;16.05;;
68168;SDS011;54981;50.206;15.978;2022-12-07T05:48:50;16.55;;;15.15;;
68168;SDS011;54981;50.206;15.978;2022-12-07T05:51:16;16.73;;;15.43;;
68168;SDS011;54981;50.206;15.978;2022-12-07T05:53:41;17.38;;;15.95;;
68168;SDS011;54981;50.206;15.978;2022-12-07T05:56:06;19.05;;;17.35;;
68168;SDS011;54981;50.206;15.978;2022-12-07T05:58:32;19.45;;;15.85;;
68168;SDS011;54981;50.206;15.978;2022-12-07T06:01:15;18.40;;;16.90;;
68168;SDS011;54981;50.206;15.978;2022-12-07T06:03:41;17.75;;;16.17;;
68168;SDS011;54981;50.206;15.978;2022-12-07T06:06:06;20.17;;;18.50;;
68168;SDS011;54981;50.206;15.978;2022-12-07T06:08:31;20.58;;;18.88;;
68168;SDS011;54981;50.206;15.978;2022-12-07T06:10:57;57.95;;;49.97;;
68168;SDS011;54981;50.206;15.978;2022-12-07T06:13:41;79.57;;;71.18;;
68168;SDS011;54981;50.206;15.978;2022-12-07T06:16:06;35.42;;;31.65;;
68168;SDS011;54981;50.206;15.978;2022-12-07T06:18:32;30.75;;;27.65;;
68168;SDS011;54981;50.206;15.978;2022-12-07T06:20:57;41.45;;;37.35;;
68168;SDS011;54981;50.206;15.978;2022-12-07T06:23:24;79.65;;;73.63;;
68168;SDS011;54981;50.206;15.978;2022-12-07T06:25:49;78.35;;;72.07;;
68168;SDS011;54981;50.206;15.978;2022-12-07T06:28:15;61.50;;;56.78;;
68168;SDS011;54981;50.206;15.978;2022-12-07T06:30:40;37.85;;;34.55;;
68168;SDS011;54981;50.206;15.978;2022-12-07T06:33:05;26.83;;;24.25;;
68168;SDS011;54981;50.206;15.978;2022-12-07T06:35:32;35.05;;;32.00;;
68168;SDS011;54981;50.206;15.978;2022-12-07T06:37:57;31.15;;;28.55;;
68168;SDS011;54981;50.206;15.978;2022-12-07T06:40:23;32.58;;;29.58;;
68168;SDS011;54981;50.206;15.978;2022-12-07T06:42:48;23.30;;;21.25;;
68168;SDS011;54981;50.206;15.978;2022-12-07T06:45:13;38.15;;;34.65;;
68168;SDS011;54981;50.206;15.978;2022-12-07T06:47:39;26.85;;;24.33;;
68168;SDS011;54981;50.206;15.978;2022-12-07T06:50:04;28.30;;;25.90;;
68168;SDS011;54981;50.206;15.978;2022-12-07T06:52:32;24.73;;;22.60;;
68168;SDS011;54981;50.206;15.978;2022-12-07T06:54:58;23.35;;;21.20;;
68168;SDS011;54981;50.206;15.978;2022-12-07T06:57:23;24.20;;;22.17;;
68168;SDS011;54981;50.206;15.978;2022-12-07T06:59:49;19.55;;;17.83;;
68168;SDS011;54981;50.206;15.978;2022-12-07T07:02:14;21.48;;;19.48;;
68168;SDS011;54981;50.206;15.978;2022-12-07T07:04:39;24.13;;;22.05;;
68168;SDS011;54981;50.206;15.978;2022-12-07T07:07:05;21.83;;;20.00;;
68168;SDS011;54981;50.206;15.978;2022-12-07T07:09:30;23.45;;;21.65;;
68168;SDS011;54981;50.206;15.978;2022-12-07T07:11:55;20.65;;;18.95;;
68168;SDS011;54981;50.206;15.978;2022-12-07T07:14:21;23.92;;;21.73;;
68168;SDS011;54981;50.206;15.978;2022-12-07T07:16:46;27.48;;;25.10;;
68168;SDS011;54981;50.206;15.978;2022-12-07T07:19:12;27.67;;;25.17;;
68168;SDS011;54981;50.206;15.978;2022-12-07T07:21:37;26.77;;;24.50;;
68168;SDS011;54981;50.206;15.978;2022-12-07T07:24:02;25.90;;;23.52;;
68168;SDS011;54981;50.206;15.978;2022-12-07T07:26:28;24.80;;;22.10;;
68168;SDS011;54981;50.206;15.978;2022-12-07T07:28:53;21.48;;;19.40;;
68168;SDS011;54981;50.206;15.978;2022-12-07T07:31:19;23.75;;;21.60;;
68168;SDS011;54981;50.206;15.978;2022-12-07T07:33:45;26.52;;;24.33;;
68168;SDS011;54981;50.206;15.978;2022-12-07T07:36:11;39.72;;;35.58;;
68168;SDS011;54981;50.206;15.978;2022-12-07T07:38:36;38.47;;;31.02;;
68168;SDS011;54981;50.206;15.978;2022-12-07T07:41:02;33.80;;;28.08;;
68168;SDS011;54981;50.206;15.978;2022-12-07T07:43:27;46.38;;;38.85;;
68168;SDS011;54981;50.206;15.978;2022-12-07T07:45:53;32.10;;;28.85;;
68168;SDS011;54981;50.206;15.978;2022-12-07T07:48:18;28.60;;;25.90;;
68168;SDS011;54981;50.206;15.978;2022-12-07T07:50:43;25.80;;;23.25;;
68168;SDS011;54981;50.206;15.978;2022-12-07T07:53:09;24.40;;;22.20;;
68168;SDS011;54981;50.206;15.978;2022-12-07T07:55:34;23.17;;;20.90;;
68168;SDS011;54981;50.206;15.978;2022-12-07T07:57:59;25.63;;;23.25;;
68168;SDS011;54981;50.206;15.978;2022-12-07T08:00:25;23.58;;;21.35;;
68168;SDS011;54981;50.206;15.978;2022-12-07T08:02:50;23.27;;;21.00;;
68168;SDS011;54981;50.206;15.978;2022-12-07T08:05:15;24.55;;;22.35;;
68168;SDS011;54981;50.206;15.978;2022-12-07T08:07:41;25.42;;;22.80;;
68168;SDS011;54981;50.206;15.978;2022-12-07T08:10:07;25.35;;;23.05;;
68168;SDS011;54981;50.206;15.978;2022-12-07T08:12:35;23.38;;;21.08;;
68168;SDS011;54981;50.206;15.978;2022-12-07T08:15:25;23.98;;;21.67;;
68168;SDS011;54981;50.206;15.978;2022-12-07T08:17:52;23.35;;;21.17;;
68168;SDS011;54981;50.206;15.978;2022-12-07T08:20:17;23.90;;;21.77;;
68168;SDS011;54981;50.206;15.978;2022-12-07T08:22:42;23.13;;;20.90;;
68168;SDS011;54981;50.206;15.978;2022-12-07T08:25:08;23.70;;;21.67;;
68168;SDS011;54981;50.206;15.978;2022-12-07T08:27:33;24.58;;;22.45;;
68168;SDS011;54981;50.206;15.978;2022-12-07T08:29:58;24.25;;;22.10;;
68168;SDS011;54981;50.206;15.978;2022-12-07T08:32:23;39.45;;;33.70;;
68168;SDS011;54981;50.206;15.978;2022-12-07T08:34:49;32.60;;;29.30;;
68168;SDS011;54981;50.206;15.978;2022-12-07T08:37:14;34.67;;;31.00;;
68168;SDS011;54981;50.206;15.978;2022-12-07T08:39:40;24.25;;;22.17;;
68168;SDS011;54981;50.206;15.978;2022-12-07T08:42:05;23.98;;;21.67;;
68168;SDS011;54981;50.206;15.978;2022-12-07T08:44:30;24.45;;;22.15;;
68168;SDS011;54981;50.206;15.978;2022-12-07T08:46:57;26.08;;;24.00;;
68168;SDS011;54981;50.206;15.978;2022-12-07T08:49:37;25.15;;;23.05;;
68168;SDS011;54981;50.206;15.978;2022-12-07T08:52:05;21.80;;;19.83;;
68168;SDS011;54981;50.206;15.978;2022-12-07T08:54:31;21.88;;;20.05;;
68168;SDS011;54981;50.206;15.978;2022-12-07T08:56:59;21.65;;;19.75;;
68168;SDS011;54981;50.206;15.978;2022-12-07T08:59:25;20.55;;;18.60;;
68168;SDS011;54981;50.206;15.978;2022-12-07T09:01:52;21.30;;;19.52;;
68168;SDS011;54981;50.206;15.978;2022-12-07T09:04:17;20.45;;;18.77;;
68168;SDS011;54981;50.206;15.978;2022-12-07T09:06:43;20.73;;;19.02;;
68168;SDS011;54981;50.206;15.978;2022-12-07T09:09:08;19.75;;;17.80;;
68168;SDS011;54981;50.206;15.978;2022-12-07T09:11:36;19.52;;;17.90;;
68168;SDS011;54981;50.206;15.978;2022-12-07T09:14:01;20.00;;;18.23;;
68168;SDS011;54981;50.206;15.978;2022-12-07T09:16:26;22.00;;;20.13;;
68168;SDS011;54981;50.206;15.978;2022-12-07T09:18:52;23.30;;;21.35;;
68168;SDS011;54981;50.206;15.978;2022-12-07T09:21:17;20.48;;;18.67;;
68168;SDS011;54981;50.206;15.978;2022-12-07T09:23:42;22.25;;;20.55;;
68168;SDS011;54981;50.206;15.978;2022-12-07T09:26:08;22.05;;;20.33;;
68168;SDS011;54981;50.206;15.978;2022-12-07T09:28:33;22.58;;;20.38;;
68168;SDS011;54981;50.206;15.978;2022-12-07T09:30:59;22.27;;;20.02;;
68168;SDS011;54981;50.206;15.978;2022-12-07T09:33:25;21.35;;;19.45;;
68168;SDS011;54981;50.206;15.978;2022-12-07T09:35:51;22.15;;;20.08;;
68168;SDS011;54981;50.206;15.978;2022-12-07T09:38:16;22.60;;;20.70;;
68168;SDS011;54981;50.206;15.978;2022-12-07T09:40:43;22.77;;;20.77;;
68168;SDS011;54981;50.206;15.978;2022-12-07T09:43:16;21.23;;;19.25;;
68168;SDS011;54981;50.206;15.978;2022-12-07T09:45:44;20.33;;;18.35;;
68168;SDS011;54981;50.206;15.978;2022-12-07T09:48:17;20.65;;;18.75;;
68168;SDS011;54981;50.206;15.978;2022-12-07T09:50:44;19.55;;;17.95;;
68168;SDS011;54981;50.206;15.978;2022-12-07T09:53:15;18.15;;;16.63;;
68168;SDS011;54981;50.206;15.978;2022-12-07T09:55:55;19.02;;;17.42;;
68168;SDS011;54981;50.206;15.978;2022-12-07T09:58:24;18.92;;;17.23;;
68168;SDS011;54981;50.206;15.978;2022-12-07T10:01:04;18.65;;;17.02;;
68168;SDS011;54981;50.206;15.978;2022-12-07T10:03:37;18.55;;;17.05;;
68168;SDS011;54981;50.206;15.978;2022-12-07T10:06:05;19.08;;;17.55;;
68168;SDS011;54981;50.206;15.978;2022-12-07T10:08:31;17.90;;;16.23;;
68168;SDS011;54981;50.206;15.978;2022-12-07T10:10:57;18.55;;;16.95;;
68168;SDS011;54981;50.206;15.978;2022-12-07T10:13:37;18.38;;;16.67;;
68168;SDS011;54981;50.206;15.978;2022-12-07T10:16:04;21.38;;;19.58;;
68168;SDS011;54981;50.206;15.978;2022-12-07T10:21:00;18.88;;;16.95;;
68168;SDS011;54981;50.206;15.978;2022-12-07T10:23:28;20.50;;;18.83;;
68168;SDS011;54981;50.206;15.978;2022-12-07T10:25:53;19.95;;;18.35;;
68168;SDS011;54981;50.206;15.978;2022-12-07T10:28:20;18.50;;;16.88;;
68168;SDS011;54981;50.206;15.978;2022-12-07T10:30:51;18.33;;;16.70;;
68168;SDS011;54981;50.206;15.978;2022-12-07T10:33:27;18.52;;;17.08;;
68168;SDS011;54981;50.206;15.978;2022-12-07T10:35:53;19.85;;;18.35;;
68168;SDS011;54981;50.206;15.978;2022-12-07T10:38:18;18.65;;;17.05;;
68168;SDS011;54981;50.206;15.978;2022-12-07T10:40:44;18.45;;;16.85;;
68168;SDS011;54981;50.206;15.978;2022-12-07T10:43:17;20.40;;;18.50;;
68168;SDS011;54981;50.206;15.978;2022-12-07T10:59:50;20.60;;;18.75;;
68168;SDS011;54981;50.206;15.978;2022-12-07T11:10:43;21.13;;;19.33;;
68168;SDS011;54981;50.206;15.978;2022-12-07T11:13:23;18.73;;;16.92;;
68168;SDS011;54981;50.206;15.978;2022-12-07T11:16:02;21.92;;;19.73;;
68168;SDS011;54981;50.206;15.978;2022-12-07T11:32:39;23.27;;;21.23;;
68168;SDS011;54981;50.206;15.978;2022-12-07T11:37:25;23.58;;;21.35;;
68168;SDS011;54981;50.206;15.978;2022-12-07T11:40:11;23.05;;;20.88;;
68168;SDS011;54981;50.206;15.978;2022-12-07T11:42:46;26.85;;;24.17;;
68168;SDS011;54981;50.206;15.978;2022-12-07T11:45:25;24.27;;;21.92;;
68168;SDS011;54981;50.206;15.978;2022-12-07T11:48:04;25.77;;;23.27;;
68168;SDS011;54981;50.206;15.978;2022-12-07T11:55:53;23.45;;;21.35;;
68168;SDS011;54981;50.206;15.978;2022-12-07T12:06:39;26.20;;;23.38;;
68168;SDS011;54981;50.206;15.978;2022-12-07T12:22:33;24.27;;;22.00;;
68168;SDS011;54981;50.206;15.978;2022-12-07T12:25:03;24.77;;;22.38;;
68168;SDS011;54981;50.206;15.978;2022-12-07T12:27:36;24.48;;;21.92;;
68168;SDS011;54981;50.206;15.978;2022-12-07T12:32:51;23.58;;;21.17;;
68168;SDS011;54981;50.206;15.978;2022-12-07T12:35:22;26.30;;;23.85;;
68168;SDS011;54981;50.206;15.978;2022-12-07T12:37:52;27.52;;;24.63;;
68168;SDS011;54981;50.206;15.978;2022-12-07T12:42:50;26.90;;;24.38;;
68168;SDS011;54981;50.206;15.978;2022-12-07T12:45:27;27.60;;;25.10;;
68168;SDS011;54981;50.206;15.978;2022-12-07T12:48:01;24.48;;;22.27;;
68168;SDS011;54981;50.206;15.978;2022-12-07T12:50:27;25.95;;;23.77;;
68168;SDS011;54981;50.206;15.978;2022-12-07T13:00:49;30.20;;;27.40;;
68168;SDS011;54981;50.206;15.978;2022-12-07T13:03:52;26.20;;;23.80;;
68168;SDS011;54981;50.206;15.978;2022-12-07T13:06:20;26.45;;;23.65;;
68168;SDS011;54981;50.206;15.978;2022-12-07T13:09:00;27.33;;;24.25;;
68168;SDS011;54981;50.206;15.978;2022-12-07T13:11:33;24.92;;;22.48;;
68168;SDS011;54981;50.206;15.978;2022-12-07T13:17:04;23.90;;;21.77;;
68168;SDS011;54981;50.206;15.978;2022-12-07T13:24:55;23.92;;;21.65;;
68168;SDS011;54981;50.206;15.978;2022-12-07T13:27:27;22.70;;;20.50;;
68168;SDS011;54981;50.206;15.978;2022-12-07T13:29:52;20.90;;;18.90;;
68168;SDS011;54981;50.206;15.978;2022-12-07T13:32:25;25.02;;;22.67;;
68168;SDS011;54981;50.206;15.978;2022-12-07T13:34:52;25.95;;;23.65;;
68168;SDS011;54981;50.206;15.978;2022-12-07T13:37:27;25.13;;;22.92;;
68168;SDS011;54981;50.206;15.978;2022-12-07T13:39:56;22.83;;;20.42;;
68168;SDS011;54981;50.206;15.978;2022-12-07T13:42:27;23.33;;;21.33;;
68168;SDS011;54981;50.206;15.978;2022-12-07T13:44:54;24.88;;;22.33;;
68168;SDS011;54981;50.206;15.978;2022-12-07T13:49:54;32.05;;;28.77;;
68168;SDS011;54981;50.206;15.978;2022-12-07T13:57:22;73.28;;;66.13;;
68168;SDS011;54981;50.206;15.978;2022-12-07T13:59:49;200.32;;;179.60;;
68168;SDS011;54981;50.206;15.978;2022-12-07T14:02:21;99.53;;;89.40;;
68168;SDS011;54981;50.206;15.978;2022-12-07T14:04:51;43.10;;;38.38;;
68168;SDS011;54981;50.206;15.978;2022-12-07T14:07:26;31.27;;;28.08;;
68168;SDS011;54981;50.206;15.978;2022-12-07T14:09:57;24.15;;;21.65;;
68168;SDS011;54981;50.206;15.978;2022-12-07T14:12:24;26.63;;;24.10;;
68168;SDS011;54981;50.206;15.978;2022-12-07T14:14:51;28.10;;;25.38;;
68168;SDS011;54981;50.206;15.978;2022-12-07T14:17:18;22.40;;;20.30;;
68168;SDS011;54981;50.206;15.978;2022-12-07T14:19:49;25.00;;;22.42;;
68168;SDS011;54981;50.206;15.978;2022-12-07T14:22:23;30.17;;;27.15;;
68168;SDS011;54981;50.206;15.978;2022-12-07T14:24:51;26.35;;;23.77;;
68168;SDS011;54981;50.206;15.978;2022-12-07T14:27:24;26.80;;;24.20;;
68168;SDS011;54981;50.206;15.978;2022-12-07T14:29:55;26.98;;;24.08;;
68168;SDS011;54981;50.206;15.978;2022-12-07T14:32:22;27.10;;;24.55;;
68168;SDS011;54981;50.206;15.978;2022-12-07T14:34:57;22.05;;;20.25;;
68168;SDS011;54981;50.206;15.978;2022-12-07T14:37:25;21.70;;;19.73;;
68168;SDS011;54981;50.206;15.978;2022-12-07T14:39:51;20.25;;;18.33;;
68168;SDS011;54981;50.206;15.978;2022-12-07T14:42:16;23.60;;;21.45;;
68168;SDS011;54981;50.206;15.978;2022-12-07T14:44:42;23.58;;;21.50;;
68168;SDS011;54981;50.206;15.978;2022-12-07T14:47:11;23.48;;;21.52;;
68168;SDS011;54981;50.206;15.978;2022-12-07T14:49:37;20.77;;;18.73;;
68168;SDS011;54981;50.206;15.978;2022-12-07T14:52:03;24.60;;;22.40;;
68168;SDS011;54981;50.206;15.978;2022-12-07T14:54:29;21.45;;;19.30;;
68168;SDS011;54981;50.206;15.978;2022-12-07T14:56:57;23.33;;;21.33;;
68168;SDS011;54981;50.206;15.978;2022-12-07T14:59:22;23.50;;;21.30;;
68168;SDS011;54981;50.206;15.978;2022-12-07T15:01:47;20.02;;;18.05;;
68168;SDS011;54981;50.206;15.978;2022-12-07T15:04:13;22.20;;;20.15;;
68168;SDS011;54981;50.206;15.978;2022-12-07T15:06:38;21.77;;;19.77;;
68168;SDS011;54981;50.206;15.978;2022-12-07T15:09:04;21.20;;;19.38;;
68168;SDS011;54981;50.206;15.978;2022-12-07T15:11:30;21.73;;;19.83;;
68168;SDS011;54981;50.206;15.978;2022-12-07T15:13:55;19.67;;;17.80;;
68168;SDS011;54981;50.206;15.978;2022-12-07T15:16:32;22.35;;;20.20;;
68168;SDS011;54981;50.206;15.978;2022-12-07T15:18:58;22.25;;;19.92;;
68168;SDS011;54981;50.206;15.978;2022-12-07T15:21:23;20.45;;;18.42;;
68168;SDS011;54981;50.206;15.978;2022-12-07T15:23:48;24.50;;;22.20;;
68168;SDS011;54981;50.206;15.978;2022-12-07T15:26:14;21.67;;;18.52;;
68168;SDS011;54981;50.206;15.978;2022-12-07T15:28:40;27.38;;;23.85;;
68168;SDS011;54981;50.206;15.978;2022-12-07T15:31:13;23.27;;;21.13;;
68168;SDS011;54981;50.206;15.978;2022-12-07T15:33:39;21.33;;;19.37;;
68168;SDS011;54981;50.206;15.978;2022-12-07T15:36:04;46.03;;;41.30;;
68168;SDS011;54981;50.206;15.978;2022-12-07T15:38:30;28.13;;;25.42;;
68168;SDS011;54981;50.206;15.978;2022-12-07T15:40:55;28.63;;;26.13;;
68168;SDS011;54981;50.206;15.978;2022-12-07T15:43:21;27.13;;;24.90;;
68168;SDS011;54981;50.206;15.978;2022-12-07T15:46:05;30.92;;;27.23;;
68168;SDS011;54981;50.206;15.978;2022-12-07T15:48:30;25.83;;;23.83;;
68168;SDS011;54981;50.206;15.978;2022-12-07T15:51:05;30.02;;;27.63;;
68168;SDS011;54981;50.206;15.978;2022-12-07T15:53:32;34.15;;;30.73;;
68168;SDS011;54981;50.206;15.978;2022-12-07T15:55:58;22.80;;;21.02;;
68168;SDS011;54981;50.206;15.978;2022-12-07T15:58:23;22.67;;;20.77;;
68168;SDS011;54981;50.206;15.978;2022-12-07T16:00:48;25.85;;;23.75;;
68168;SDS011;54981;50.206;15.978;2022-12-07T16:03:14;21.75;;;19.90;;
68168;SDS011;54981;50.206;15.978;2022-12-07T16:05:39;21.33;;;19.40;;
68168;SDS011;54981;50.206;15.978;2022-12-07T16:08:04;21.65;;;19.73;;
68168;SDS011;54981;50.206;15.978;2022-12-07T16:10:30;22.95;;;21.15;;
68168;SDS011;54981;50.206;15.978;2022-12-07T16:12:55;22.77;;;20.85;;
68168;SDS011;54981;50.206;15.978;2022-12-07T16:15:20;23.58;;;21.17;;
68168;SDS011;54981;50.206;15.978;2022-12-07T16:17:46;20.80;;;19.00;;
68168;SDS011;54981;50.206;15.978;2022-12-07T16:20:11;21.05;;;19.15;;
68168;SDS011;54981;50.206;15.978;2022-12-07T16:22:37;22.77;;;20.63;;